createdAt,value
2022-08-21T00:00:20.253Z,15.30
2022-08-21T00:03:00.241Z,15.40
2022-08-21T00:05:27.738Z,15.40
2022-08-21T00:07:55.747Z,15.50
2022-08-21T00:10:23.971Z,15.50
2022-08-21T00:12:51.185Z,15.50
2022-08-21T00:15:23.780Z,15.50
2022-08-21T00:17:50.885Z,15.40
2022-08-21T00:20:18.673Z,15.40
2022-08-21T00:22:47.077Z,15.30
2022-08-21T00:25:15.393Z,15.20
2022-08-21T00:27:43.516Z,15.10
2022-08-21T00:30:11.942Z,15.10
2022-08-21T00:32:46.662Z,15.00
2022-08-21T00:35:17.097Z,15.00
2022-08-21T00:37:44.458Z,15.00
2022-08-21T00:40:17.419Z,14.90
2022-08-21T00:42:44.967Z,14.90
2022-08-21T00:45:22.794Z,14.80
2022-08-21T00:47:51.057Z,14.80
2022-08-21T00:50:22.057Z,14.80
2022-08-21T00:52:52.179Z,14.80
2022-08-21T00:55:21.807Z,14.70
2022-08-21T00:57:56.261Z,14.80
2022-08-21T01:00:30.965Z,14.80
2022-08-21T01:03:00.365Z,14.80
2022-08-21T01:05:28.262Z,14.80
2022-08-21T01:07:58.130Z,14.70
2022-08-21T01:10:26.028Z,14.80
2022-08-21T01:12:56.324Z,14.80
2022-08-21T01:15:25.566Z,14.80
2022-08-21T01:17:52.794Z,14.70
2022-08-21T01:20:20.008Z,14.70
2022-08-21T01:22:47.184Z,14.70
2022-08-21T01:25:16.979Z,14.70
2022-08-21T01:27:44.995Z,14.60
2022-08-21T01:30:16.137Z,14.60
2022-08-21T01:32:43.712Z,14.60
2022-08-21T01:35:12.336Z,14.50
2022-08-21T01:37:39.496Z,14.60
2022-08-21T01:40:08.013Z,14.60
2022-08-21T01:42:35.903Z,14.50
2022-08-21T01:45:03.021Z,14.50
2022-08-21T01:47:31.872Z,14.50
2022-08-21T01:49:58.792Z,14.50
2022-08-21T01:52:25.794Z,14.40
2022-08-21T01:54:55.655Z,14.50
2022-08-21T01:57:26.219Z,14.50
2022-08-21T01:59:54.202Z,14.50
2022-08-21T02:02:21.061Z,14.40
2022-08-21T02:04:47.945Z,14.40
2022-08-21T02:07:15.943Z,14.40
2022-08-21T02:09:43.785Z,14.30
2022-08-21T02:12:12.376Z,14.30
2022-08-21T02:14:39.770Z,14.30
2022-08-21T02:17:09.830Z,14.30
2022-08-21T02:19:40.609Z,14.30
2022-08-21T02:22:12.298Z,14.20
2022-08-21T02:24:54.605Z,14.20
2022-08-21T02:27:26.376Z,14.20
2022-08-21T02:29:54.563Z,14.20
2022-08-21T02:32:22.475Z,14.10
2022-08-21T02:34:49.944Z,14.20
2022-08-21T02:37:17.217Z,14.10
2022-08-21T02:39:44.328Z,14.10
2022-08-21T02:42:11.212Z,14.10
2022-08-21T02:44:38.052Z,14.10
2022-08-21T02:47:05.261Z,14.10
2022-08-21T02:49:32.062Z,14.10
2022-08-21T02:51:59.240Z,14.10
2022-08-21T02:54:26.262Z,14.10
2022-08-21T02:56:53.064Z,14.00
2022-08-21T02:59:20.064Z,14.00
2022-08-21T03:01:47.541Z,13.90
2022-08-21T03:04:14.553Z,14.00
2022-08-21T03:06:41.567Z,13.90
2022-08-21T03:09:08.781Z,13.80
2022-08-21T03:11:37.164Z,13.80
2022-08-21T03:14:04.150Z,13.80
2022-08-21T03:16:34.753Z,13.70
2022-08-21T03:19:02.414Z,13.70
2022-08-21T03:21:29.782Z,13.80
2022-08-21T03:23:56.951Z,13.80
2022-08-21T03:26:25.241Z,13.70
2022-08-21T03:28:52.416Z,13.70
2022-08-21T03:31:19.413Z,13.80
2022-08-21T03:33:46.295Z,13.70
2022-08-21T03:36:13.129Z,13.80
2022-08-21T03:38:40.365Z,13.80
2022-08-21T03:41:08.354Z,13.80
2022-08-21T03:43:36.545Z,13.80
2022-08-21T03:46:04.963Z,13.90
2022-08-21T03:48:32.746Z,13.90
2022-08-21T03:50:59.798Z,13.90
2022-08-21T03:53:27.183Z,13.90
2022-08-21T03:55:54.842Z,13.80
2022-08-21T03:58:24.731Z,13.80
2022-08-21T04:00:55.476Z,13.80
2022-08-21T04:03:22.523Z,13.70
2022-08-21T04:05:49.647Z,13.70
2022-08-21T04:08:19.557Z,13.70
2022-08-21T04:10:49.637Z,13.70
2022-08-21T04:13:16.773Z,13.70
2022-08-21T04:15:44.176Z,13.70
2022-08-21T04:18:11.668Z,13.70
2022-08-21T04:20:39.366Z,13.70
2022-08-21T04:23:06.459Z,13.70
2022-08-21T04:25:33.380Z,13.70
2022-08-21T04:28:00.490Z,13.70
2022-08-21T04:30:28.648Z,13.80
2022-08-21T04:32:58.160Z,13.80
2022-08-21T04:35:28.269Z,13.80
2022-08-21T04:37:55.716Z,13.80
2022-08-21T04:40:26.386Z,13.80
2022-08-21T04:43:00.949Z,13.80
2022-08-21T04:45:32.502Z,13.80
2022-08-21T04:48:01.394Z,13.80
2022-08-21T04:50:39.552Z,13.90
2022-08-21T04:53:17.150Z,13.90
2022-08-21T04:55:44.549Z,13.90
2022-08-21T04:58:14.055Z,14.00
2022-08-21T05:00:41.752Z,14.00
2022-08-21T05:03:10.683Z,14.10
2022-08-21T05:05:37.971Z,14.10
2022-08-21T05:08:05.695Z,14.10
2022-08-21T05:10:33.369Z,14.20
2022-08-21T05:13:01.551Z,14.30
2022-08-21T05:15:28.434Z,14.40
2022-08-21T05:18:00.780Z,14.50
2022-08-21T05:20:29.539Z,14.50
2022-08-21T05:22:57.212Z,14.60
2022-08-21T05:25:24.231Z,14.70
2022-08-21T05:27:52.249Z,14.80
2022-08-21T05:30:20.445Z,14.90
2022-08-21T05:32:48.641Z,15.00
2022-08-21T05:35:15.586Z,15.20
2022-08-21T05:37:42.399Z,15.30
2022-08-21T05:40:21.805Z,15.50
2022-08-21T05:42:55.558Z,15.70
2022-08-21T05:45:42.969Z,16.00
2022-08-21T05:48:20.407Z,16.40
2022-08-21T05:50:49.036Z,17.60
2022-08-21T05:53:18.522Z,18.80
2022-08-21T05:55:46.942Z,19.90
2022-08-21T05:58:19.110Z,20.90
2022-08-21T06:00:48.371Z,21.50
2022-08-21T06:03:19.190Z,22.30
2022-08-21T06:05:46.795Z,23.30
2022-08-21T06:08:14.634Z,23.80
2022-08-21T06:10:41.578Z,23.80
2022-08-21T06:13:08.430Z,24.60
2022-08-21T06:15:38.184Z,25.10
2022-08-21T06:18:05.080Z,25.40
2022-08-21T06:20:32.879Z,25.20
2022-08-21T06:23:00.062Z,25.50
2022-08-21T06:25:27.266Z,25.90
2022-08-21T06:27:54.148Z,25.90
2022-08-21T06:30:21.261Z,26.20
2022-08-21T06:32:48.124Z,25.90
2022-08-21T06:35:14.973Z,25.60
2022-08-21T06:37:41.798Z,25.80
2022-08-21T06:40:12.605Z,26.30
2022-08-21T06:42:42.843Z,26.90
2022-08-21T06:45:10.957Z,26.90
2022-08-21T06:47:38.248Z,27.50
2022-08-21T06:50:08.533Z,27.60
2022-08-21T06:52:39.746Z,28.10
2022-08-21T06:55:09.889Z,28.00
2022-08-21T06:57:36.991Z,27.60
2022-08-21T07:00:09.472Z,27.50
2022-08-21T07:02:36.355Z,28.20
2022-08-21T07:05:18.523Z,28.60
2022-08-21T07:07:46.694Z,28.50
2022-08-21T07:10:21.826Z,28.60
2022-08-21T07:12:51.043Z,28.50
2022-08-21T07:15:19.598Z,28.10
2022-08-21T07:17:46.470Z,28.30
2022-08-21T07:20:13.972Z,28.90
2022-08-21T07:22:41.744Z,29.10
2022-08-21T07:25:09.153Z,29.30
2022-08-21T07:27:37.120Z,29.60
2022-08-21T07:30:05.606Z,30.10
2022-08-21T07:32:32.722Z,30.40
2022-08-21T07:34:59.662Z,30.60
2022-08-21T07:37:26.682Z,30.40
2022-08-21T07:39:53.696Z,30.10
2022-08-21T07:42:20.539Z,30.00
2022-08-21T07:44:47.541Z,29.90
2022-08-21T07:47:17.758Z,30.30
2022-08-21T07:50:05.315Z,30.10
2022-08-21T07:52:32.133Z,30.30
2022-08-21T07:55:04.079Z,30.30
2022-08-21T07:57:33.063Z,30.30
2022-08-21T07:59:59.914Z,30.20
2022-08-21T08:02:30.070Z,30.20
2022-08-21T08:05:02.034Z,29.80
2022-08-21T08:07:29.019Z,29.50
2022-08-21T08:09:55.954Z,29.90
2022-08-21T08:12:22.974Z,29.70
2022-08-21T08:14:49.867Z,29.00
2022-08-21T08:17:16.730Z,28.80
2022-08-21T08:19:43.594Z,28.50
2022-08-21T08:22:15.527Z,28.00
2022-08-21T08:24:42.578Z,28.10
2022-08-21T08:27:09.454Z,27.90
2022-08-21T08:32:08.695Z,27.00
2022-08-21T08:34:36.955Z,26.90
2022-08-21T08:37:04.637Z,26.90
2022-08-21T08:39:34.044Z,27.00
2022-08-21T08:42:33.025Z,27.40
2022-08-21T08:45:01.253Z,27.80
2022-08-21T08:47:30.773Z,28.20
2022-08-21T08:50:16.851Z,28.20
2022-08-21T08:53:21.314Z,28.40
2022-08-21T08:55:52.131Z,28.30
2022-08-21T08:58:34.198Z,28.10
2022-08-21T09:01:02.451Z,27.80
2022-08-21T09:03:29.893Z,27.50
2022-08-21T09:06:24.352Z,27.60
2022-08-21T09:09:00.001Z,27.90
2022-08-21T09:11:49.750Z,27.60
2022-08-21T09:14:30.888Z,27.40
2022-08-21T09:17:07.805Z,27.00
2022-08-21T09:19:34.640Z,26.30
2022-08-21T09:22:13.067Z,25.50
2022-08-21T09:24:49.932Z,24.90
2022-08-21T09:27:21.769Z,24.70
2022-08-21T09:29:52.926Z,24.80
2022-08-21T09:32:24.239Z,25.10
2022-08-21T09:35:17.806Z,25.10
2022-08-21T09:37:52.846Z,24.90
2022-08-21T09:40:44.315Z,24.80
2022-08-21T09:43:20.906Z,24.60
2022-08-21T09:45:49.281Z,24.50
2022-08-21T09:48:20.811Z,24.40
2022-08-21T09:50:48.939Z,24.30
2022-08-21T09:53:20.337Z,24.30
2022-08-21T09:56:14.878Z,24.20
2022-08-21T09:58:45.734Z,24.20
2022-08-21T10:01:22.787Z,24.10
2022-08-21T10:04:03.546Z,24.10
2022-08-21T10:06:30.431Z,24.10
2022-08-21T10:09:13.544Z,24.10
2022-08-21T10:12:11.408Z,24.10
2022-08-21T10:15:00.301Z,24.20
2022-08-21T10:17:45.698Z,24.10
2022-08-21T10:20:29.752Z,24.10
2022-08-21T10:23:19.575Z,24.10
2022-08-21T10:26:14.129Z,24.10
2022-08-21T10:28:51.605Z,24.20
2022-08-21T10:31:43.925Z,24.20
2022-08-21T10:34:32.528Z,24.20
2022-08-21T10:37:08.334Z,24.30
2022-08-21T10:39:56.031Z,24.20
2022-08-21T10:42:40.862Z,24.40
2022-08-21T10:45:26.106Z,24.30
2022-08-21T10:48:03.322Z,24.30
2022-08-21T10:50:49.938Z,24.30
2022-08-21T10:53:28.562Z,24.30
2022-08-21T10:56:22.772Z,24.30
2022-08-21T10:59:11.074Z,24.20
2022-08-21T11:02:01.863Z,24.20
2022-08-21T11:04:50.170Z,24.20
2022-08-21T11:07:29.956Z,24.30
2022-08-21T11:10:09.172Z,24.20
2022-08-21T11:12:44.242Z,24.40
2022-08-21T11:15:32.918Z,24.50
2022-08-21T11:18:19.339Z,24.50
2022-08-21T11:21:20.621Z,24.60
2022-08-21T11:23:55.618Z,24.50
2022-08-21T11:26:30.703Z,24.70
2022-08-21T11:29:05.560Z,24.70
2022-08-21T11:31:54.764Z,24.80
2022-08-21T11:34:41.310Z,25.00
2022-08-21T11:37:14.152Z,25.10
2022-08-21T11:40:05.193Z,25.20
2022-08-21T11:42:51.396Z,25.20
2022-08-21T11:45:40.450Z,25.10
2022-08-21T11:48:30.017Z,25.00
2022-08-21T11:50:58.942Z,24.90
2022-08-21T11:53:54.084Z,25.00
2022-08-21T11:56:45.459Z,25.10
2022-08-21T11:59:41.098Z,25.10
2022-08-21T12:02:18.933Z,25.00
2022-08-21T12:04:55.366Z,25.00
2022-08-21T12:07:42.702Z,24.90
2022-08-21T12:10:17.584Z,24.90
2022-08-21T12:12:45.836Z,25.00
2022-08-21T12:15:21.850Z,25.10
2022-08-21T12:17:55.507Z,25.20
2022-08-21T12:20:22.294Z,25.30
2022-08-21T12:22:55.880Z,25.40
2022-08-21T12:25:23.512Z,25.30
2022-08-21T12:28:08.779Z,25.20
2022-08-21T12:30:43.161Z,25.10
2022-08-21T12:33:51.395Z,25.10
2022-08-21T12:36:26.767Z,25.10
2022-08-21T12:39:02.242Z,24.90
2022-08-21T12:41:34.087Z,24.70
2022-08-21T12:44:11.445Z,24.60
2022-08-21T12:46:47.225Z,24.60
2022-08-21T12:49:15.990Z,24.60
2022-08-21T12:52:02.798Z,24.50
2022-08-21T12:54:33.061Z,24.40
2022-08-21T12:57:03.628Z,24.40
2022-08-21T12:59:31.733Z,24.50
2022-08-21T13:02:02.985Z,24.60
2022-08-21T13:04:41.863Z,24.80
2022-08-21T13:07:13.106Z,24.70
2022-08-21T13:09:49.192Z,24.60
2022-08-21T13:12:18.220Z,24.70
2022-08-21T13:14:48.357Z,24.80
2022-08-21T13:17:23.725Z,24.90
2022-08-21T13:20:11.093Z,24.90
2022-08-21T13:22:47.490Z,25.10
2022-08-21T13:25:16.817Z,25.30
2022-08-21T13:27:58.161Z,25.40
2022-08-21T13:30:25.259Z,25.50
2022-08-21T13:32:59.393Z,25.60
2022-08-21T13:35:37.152Z,25.90
2022-08-21T13:38:05.297Z,25.90
2022-08-21T13:40:57.027Z,26.10
2022-08-21T13:43:29.718Z,26.10
2022-08-21T13:45:57.856Z,26.20
2022-08-21T13:48:30.150Z,26.20
2022-08-21T13:50:57.890Z,26.10
2022-08-21T13:53:30.098Z,26.00
2022-08-21T13:56:00.761Z,25.60
2022-08-21T13:58:29.754Z,25.30
2022-08-21T14:01:00.513Z,25.20
2022-08-21T14:03:27.342Z,25.20
2022-08-21T14:05:54.369Z,25.10
2022-08-21T14:08:41.040Z,25.10
2022-08-21T14:11:13.141Z,25.10
2022-08-21T14:13:42.133Z,25.10
2022-08-21T14:16:22.130Z,25.20
2022-08-21T14:19:08.023Z,25.10
2022-08-21T14:21:41.250Z,24.90
2022-08-21T14:24:15.252Z,24.90
2022-08-21T14:27:05.368Z,24.80
2022-08-21T14:29:42.048Z,24.80
2022-08-21T14:32:37.409Z,24.60
2022-08-21T14:35:12.036Z,24.50
2022-08-21T14:37:42.223Z,24.40
2022-08-21T14:40:10.307Z,24.40
2022-08-21T14:42:44.204Z,24.40
2022-08-21T14:45:24.830Z,24.40
2022-08-21T14:47:55.006Z,24.40
2022-08-21T14:50:22.452Z,24.40
2022-08-21T14:52:49.479Z,24.40
2022-08-21T14:55:17.819Z,24.50
2022-08-21T14:57:48.452Z,24.60
2022-08-21T15:00:19.419Z,24.70
2022-08-21T15:02:47.449Z,24.60
2022-08-21T15:05:24.139Z,24.60
2022-08-21T15:08:00.129Z,24.60
2022-08-21T15:10:27.233Z,24.50
2022-08-21T15:12:54.177Z,24.50
2022-08-21T15:15:21.168Z,24.40
2022-08-21T15:17:48.626Z,24.40
2022-08-21T15:20:15.708Z,24.30
2022-08-21T15:22:47.519Z,24.30
2022-08-21T15:25:14.941Z,24.20
2022-08-21T15:27:42.026Z,24.20
2022-08-21T15:30:09.439Z,24.20
2022-08-21T15:32:36.313Z,24.10
2022-08-21T15:35:03.703Z,24.10
2022-08-21T15:37:30.597Z,24.10
2022-08-21T15:39:57.907Z,24.10
2022-08-21T15:42:27.803Z,24.20
2022-08-21T15:44:56.836Z,24.20
2022-08-21T15:47:30.367Z,24.20
2022-08-21T15:49:57.514Z,24.20
2022-08-21T15:52:24.910Z,24.30
2022-08-21T15:54:52.147Z,24.30
2022-08-21T15:57:22.438Z,24.30
2022-08-21T15:59:54.402Z,24.20
2022-08-21T16:02:28.612Z,24.30
2022-08-21T16:04:56.230Z,24.30
2022-08-21T16:07:23.602Z,24.30
2022-08-21T16:09:50.610Z,24.30
2022-08-21T16:12:23.678Z,24.30
2022-08-21T16:14:52.740Z,24.30
2022-08-21T16:17:19.795Z,24.40
2022-08-21T16:19:47.257Z,24.50
2022-08-21T16:22:14.133Z,24.60
2022-08-21T16:24:41.079Z,24.50
2022-08-21T16:27:09.260Z,24.60
2022-08-21T16:29:43.312Z,24.60
2022-08-21T16:32:12.560Z,24.60
2022-08-21T16:34:45.051Z,24.60
2022-08-21T16:37:11.922Z,24.60
2022-08-21T16:39:38.866Z,24.60
2022-08-21T16:42:09.647Z,24.50
2022-08-21T16:44:37.249Z,24.40
2022-08-21T16:47:09.829Z,24.30
2022-08-21T16:49:57.290Z,24.30
2022-08-21T16:52:25.053Z,24.30
2022-08-21T16:54:57.665Z,24.20
2022-08-21T16:57:26.381Z,24.20
2022-08-21T16:59:56.955Z,24.20
2022-08-21T17:02:39.378Z,24.10
2022-08-21T17:05:13.611Z,24.00
2022-08-21T17:07:47.205Z,23.80
2022-08-21T17:10:17.332Z,23.80
2022-08-21T17:12:51.458Z,23.70
2022-08-21T17:15:22.118Z,23.80
2022-08-21T17:17:49.746Z,23.60
2022-08-21T17:20:17.198Z,23.50
2022-08-21T17:22:44.166Z,23.40
2022-08-21T17:25:11.507Z,23.30
2022-08-21T17:27:39.862Z,23.30
2022-08-21T17:30:08.047Z,23.10
2022-08-21T17:32:34.938Z,23.00
2022-08-21T17:35:01.783Z,23.00
2022-08-21T17:37:29.419Z,23.00
2022-08-21T17:39:57.096Z,22.90
2022-08-21T17:42:25.245Z,22.90
2022-08-21T17:44:52.699Z,22.90
2022-08-21T17:47:19.603Z,22.80
2022-08-21T17:49:46.423Z,22.60
2022-08-21T17:52:13.321Z,22.50
2022-08-21T17:54:41.200Z,22.40
2022-08-21T17:57:11.047Z,22.30
2022-08-21T17:59:38.293Z,22.30
2022-08-21T18:02:09.867Z,22.30
2022-08-21T18:04:50.462Z,22.30
2022-08-21T18:07:30.917Z,22.20
2022-08-21T18:10:00.276Z,22.10
2022-08-21T18:12:27.134Z,21.90
2022-08-21T18:14:54.057Z,21.80
2022-08-21T18:17:22.380Z,21.70
2022-08-21T18:19:49.542Z,21.60
2022-08-21T18:22:16.653Z,21.60
2022-08-21T18:24:44.376Z,21.60
2022-08-21T18:27:13.471Z,21.50
2022-08-21T18:29:47.156Z,21.50
2022-08-21T18:32:31.446Z,21.50
2022-08-21T18:35:01.890Z,21.40
2022-08-21T18:37:29.698Z,21.30
2022-08-21T18:39:56.730Z,21.20
2022-08-21T18:42:28.493Z,21.10
2022-08-21T18:45:01.027Z,21.10
2022-08-21T18:47:42.523Z,21.10
2022-08-21T18:50:12.509Z,21.00
2022-08-21T18:52:51.874Z,20.90
2022-08-21T18:55:21.264Z,20.80
2022-08-21T18:57:48.215Z,20.70
2022-08-21T19:00:19.981Z,20.60
2022-08-21T19:02:47.649Z,20.60
2022-08-21T19:05:16.117Z,20.50
2022-08-21T19:07:45.205Z,20.50
2022-08-21T19:10:27.558Z,20.60
2022-08-21T19:12:57.964Z,20.50
2022-08-21T19:15:25.073Z,20.50
2022-08-21T19:17:53.522Z,20.40
2022-08-21T19:20:36.544Z,20.40
2022-08-21T19:23:07.753Z,20.40
2022-08-21T19:25:36.152Z,20.60
2022-08-21T19:28:10.715Z,20.60
2022-08-21T19:30:41.424Z,20.60
2022-08-21T19:33:10.183Z,20.70
2022-08-21T19:35:37.046Z,20.70
2022-08-21T19:38:04.021Z,20.60
2022-08-21T19:40:31.962Z,20.70
2022-08-21T19:42:59.094Z,20.60
2022-08-21T19:45:28.814Z,20.50
2022-08-21T19:47:56.008Z,20.60
2022-08-21T19:50:26.082Z,20.50
2022-08-21T19:52:52.966Z,20.50
2022-08-21T19:55:20.648Z,20.50
2022-08-21T19:57:50.562Z,20.40
2022-08-21T20:00:18.170Z,20.30
2022-08-21T20:02:48.024Z,20.30
2022-08-21T20:05:26.211Z,20.20
2022-08-21T20:08:06.540Z,20.10
2022-08-21T20:10:41.101Z,20.20
2022-08-21T20:13:11.463Z,20.10
2022-08-21T20:15:38.405Z,19.90
2022-08-21T20:18:05.456Z,19.90
2022-08-21T20:20:33.074Z,19.70
2022-08-21T20:23:00.354Z,19.60
2022-08-21T20:25:38.430Z,19.70
2022-08-21T20:28:06.705Z,19.60
2022-08-21T20:30:35.579Z,19.70
2022-08-21T20:33:02.491Z,19.90
2022-08-21T20:35:29.606Z,20.00
2022-08-21T20:37:58.825Z,19.90
2022-08-21T20:40:32.087Z,20.00
2022-08-21T20:43:01.566Z,20.00
2022-08-21T20:45:37.032Z,19.90
2022-08-21T20:48:12.523Z,19.80
2022-08-21T20:50:47.640Z,19.70
2022-08-21T20:53:25.026Z,19.60
2022-08-21T20:55:52.410Z,19.60
2022-08-21T20:58:38.457Z,19.50
2022-08-21T21:01:09.538Z,19.50
2022-08-21T21:03:50.969Z,19.40
2022-08-21T21:06:26.313Z,19.50
2022-08-21T21:09:16.484Z,19.50
2022-08-21T21:11:53.397Z,19.40
2022-08-21T21:14:30.292Z,19.40
2022-08-21T21:17:02.607Z,19.40
2022-08-21T21:19:55.923Z,19.40
2022-08-21T21:22:47.643Z,19.30
2022-08-21T21:25:28.010Z,19.20
2022-08-21T21:28:17.211Z,19.30
2022-08-21T21:30:51.942Z,19.20
2022-08-21T21:33:25.321Z,19.30
2022-08-21T21:36:09.142Z,19.20
2022-08-21T21:38:55.923Z,19.20
2022-08-21T21:42:00.919Z,19.10
2022-08-21T21:45:03.502Z,19.10
2022-08-21T21:47:53.222Z,19.00
2022-08-21T21:50:54.917Z,18.80
2022-08-21T21:53:36.977Z,18.70
2022-08-21T21:56:11.637Z,18.80
2022-08-21T21:58:52.066Z,18.80
2022-08-21T22:01:44.790Z,18.70
2022-08-21T22:04:46.897Z,18.80
2022-08-21T22:07:43.511Z,18.80
2022-08-21T22:10:43.769Z,18.90
2022-08-21T22:13:32.340Z,18.80
2022-08-21T22:16:06.582Z,18.80
2022-08-21T22:18:44.998Z,18.70
2022-08-21T22:21:43.140Z,18.70
2022-08-21T22:24:18.434Z,18.60
2022-08-21T22:26:52.324Z,18.60
2022-08-21T22:29:21.697Z,18.60
2022-08-21T22:32:10.590Z,18.60
2022-08-21T22:34:39.213Z,18.60
2022-08-21T22:37:12.117Z,18.60
2022-08-21T22:39:45.122Z,18.60
2022-08-21T22:42:14.022Z,18.60
2022-08-21T22:45:09.478Z,18.50
2022-08-21T22:47:46.068Z,18.40
2022-08-21T22:50:26.982Z,18.40
2022-08-21T22:52:58.109Z,18.30
2022-08-21T22:55:53.811Z,18.20
2022-08-21T22:58:25.173Z,18.20
2022-08-21T23:01:07.082Z,18.10
2022-08-21T23:03:47.057Z,18.00
2022-08-21T23:06:46.549Z,17.80
2022-08-21T23:09:30.978Z,17.60
2022-08-21T23:12:02.145Z,17.60
2022-08-21T23:14:48.713Z,17.50
2022-08-21T23:17:50.987Z,17.40
2022-08-21T23:20:34.127Z,17.30
2022-08-21T23:23:24.737Z,17.30
2022-08-21T23:26:06.747Z,17.20
2022-08-21T23:28:54.670Z,17.20
2022-08-21T23:31:40.194Z,17.10
2022-08-21T23:34:15.886Z,17.20
2022-08-21T23:37:24.160Z,17.10
2022-08-21T23:40:28.056Z,17.00
2022-08-21T23:43:13.332Z,16.90
2022-08-21T23:46:15.365Z,16.90
2022-08-21T23:48:56.046Z,16.80
2022-08-21T23:54:52.438Z,16.90
2022-08-21T23:57:57.534Z,16.90
